createdAt,value
2023-02-23T00:00:18.918Z,1000.18
2023-02-23T00:01:19.250Z,1000.19
2023-02-23T00:02:18.951Z,1000.19
2023-02-23T00:03:18.909Z,1000.19
2023-02-23T00:04:18.891Z,1000.19
2023-02-23T00:05:18.870Z,1000.19
2023-02-23T00:06:18.883Z,1000.18
2023-02-23T00:07:18.895Z,1000.19
2023-02-23T00:08:18.813Z,1000.19
2023-02-23T00:09:18.849Z,1000.20
2023-02-23T00:10:18.834Z,1000.20
2023-02-23T00:11:19.117Z,1000.20
2023-02-23T00:12:18.808Z,1000.20
2023-02-23T00:13:18.795Z,1000.20
2023-02-23T00:14:18.762Z,1000.22
2023-02-23T00:15:18.779Z,1000.22
2023-02-23T00:16:18.879Z,1000.22
2023-02-23T00:17:18.777Z,1000.21
2023-02-23T00:18:18.760Z,1000.21
2023-02-23T00:19:18.769Z,1000.21
2023-02-23T00:20:18.707Z,1000.20
2023-02-23T00:21:19.033Z,1000.20
2023-02-23T00:22:18.676Z,1000.20
2023-02-23T00:23:18.684Z,1000.19
2023-02-23T00:24:18.680Z,1000.19
2023-02-23T00:25:18.690Z,1000.20
2023-02-23T00:26:18.646Z,1000.21
2023-02-23T00:27:18.651Z,1000.20
2023-02-23T00:28:18.623Z,1000.19
2023-02-23T00:29:18.606Z,1000.18
2023-02-23T00:30:18.614Z,1000.18
2023-02-23T00:31:19.022Z,1000.16
2023-02-23T00:32:18.651Z,1000.15
2023-02-23T00:33:18.593Z,1000.14
2023-02-23T00:34:18.577Z,1000.14
2023-02-23T00:35:18.544Z,1000.14
2023-02-23T00:36:18.581Z,1000.14
2023-02-23T00:37:18.526Z,1000.14
2023-02-23T00:38:18.530Z,1000.14
2023-02-23T00:39:18.530Z,1000.14
2023-02-23T00:40:18.518Z,1000.14
2023-02-23T00:41:18.789Z,1000.14
2023-02-23T00:42:18.494Z,1000.13
2023-02-23T00:43:18.507Z,1000.13
2023-02-23T00:44:18.460Z,1000.13
2023-02-23T00:45:18.494Z,1000.13
2023-02-23T00:46:18.498Z,1000.12
2023-02-23T00:47:18.437Z,1000.11
2023-02-23T00:48:18.420Z,1000.10
2023-02-23T00:49:18.406Z,1000.10
2023-02-23T00:50:18.474Z,1000.10
2023-02-23T00:51:18.777Z,1000.10
2023-02-23T00:52:18.385Z,1000.11
2023-02-23T00:53:18.383Z,1000.10
2023-02-23T00:54:18.362Z,1000.11
2023-02-23T00:55:18.355Z,1000.11
2023-02-23T00:56:18.388Z,1000.12
2023-02-23T00:57:18.326Z,1000.13
2023-02-23T00:58:18.327Z,1000.14
2023-02-23T00:59:18.305Z,1000.14
2023-02-23T01:00:18.306Z,1000.14
2023-02-23T01:01:18.730Z,1000.15
2023-02-23T01:02:18.342Z,1000.17
2023-02-23T01:03:18.254Z,1000.18
2023-02-23T01:04:18.263Z,1000.19
2023-02-23T01:05:18.236Z,1000.20
2023-02-23T01:06:18.248Z,1000.21
2023-02-23T01:07:18.224Z,1000.21
2023-02-23T01:08:18.233Z,1000.22
2023-02-23T01:09:18.201Z,1000.22
2023-02-23T01:10:18.187Z,1000.22
2023-02-23T01:11:18.491Z,1000.21
2023-02-23T01:12:18.179Z,1000.21
2023-02-23T01:13:18.166Z,1000.21
2023-02-23T01:14:18.153Z,1000.20
2023-02-23T01:15:18.160Z,1000.19
2023-02-23T01:16:18.137Z,1000.19
2023-02-23T01:17:18.118Z,1000.19
2023-02-23T01:18:18.105Z,1000.19
2023-02-23T01:19:18.099Z,1000.20
2023-02-23T01:20:18.074Z,1000.20
2023-02-23T01:21:18.418Z,1000.21
2023-02-23T01:22:18.085Z,1000.21
2023-02-23T01:23:19.763Z,1000.21
2023-02-23T01:24:18.067Z,1000.20
2023-02-23T01:25:18.022Z,1000.19
2023-02-23T01:26:18.021Z,1000.19
2023-02-23T01:27:18.022Z,1000.19
2023-02-23T01:28:18.004Z,1000.20
2023-02-23T01:29:18.188Z,1000.20
2023-02-23T01:30:17.986Z,1000.21
2023-02-23T01:31:18.427Z,1000.22
2023-02-23T01:32:18.108Z,1000.23
2023-02-23T01:33:17.933Z,1000.22
2023-02-23T01:34:17.942Z,1000.21
2023-02-23T01:35:17.925Z,1000.21
2023-02-23T01:36:17.910Z,1000.21
2023-02-23T01:37:17.902Z,1000.20
2023-02-23T01:38:17.901Z,1000.19
2023-02-23T01:39:17.883Z,1000.18
2023-02-23T01:40:17.874Z,1000.17
2023-02-23T01:41:18.322Z,1000.17
2023-02-23T01:42:17.896Z,1000.15
2023-02-23T01:43:17.851Z,1000.15
2023-02-23T01:44:17.841Z,1000.15
2023-02-23T01:45:17.819Z,1000.14
2023-02-23T01:46:17.861Z,1000.14
2023-02-23T01:47:17.813Z,1000.14
2023-02-23T01:48:17.795Z,1000.15
2023-02-23T01:49:17.775Z,1000.14
2023-02-23T01:50:17.784Z,1000.14
2023-02-23T01:51:18.208Z,1000.15
2023-02-23T01:52:17.758Z,1000.15
2023-02-23T01:53:17.755Z,1000.15
2023-02-23T01:54:17.744Z,1000.15
2023-02-23T01:55:17.727Z,1000.14
2023-02-23T01:56:17.707Z,1000.13
2023-02-23T01:57:17.706Z,1000.13
2023-02-23T01:58:17.689Z,1000.13
2023-02-23T01:59:17.683Z,1000.12
2023-02-23T02:00:17.671Z,1000.11
2023-02-23T02:01:18.210Z,1000.10
2023-02-23T02:02:17.637Z,1000.10
2023-02-23T02:03:17.630Z,1000.10
2023-02-23T02:04:17.624Z,1000.09
2023-02-23T02:05:17.715Z,1000.08
2023-02-23T02:06:17.611Z,1000.08
2023-02-23T02:07:17.583Z,1000.08
2023-02-23T02:08:17.589Z,1000.08
2023-02-23T02:09:17.629Z,1000.09
2023-02-23T02:10:17.595Z,1000.09
2023-02-23T02:11:17.927Z,1000.09
2023-02-23T02:12:17.547Z,1000.08
2023-02-23T02:13:17.514Z,1000.08
2023-02-23T02:14:17.533Z,1000.09
2023-02-23T02:15:17.813Z,1000.10
2023-02-23T02:16:17.546Z,1000.11
2023-02-23T02:17:17.509Z,1000.11
2023-02-23T02:18:26.491Z,1000.11
2023-02-23T02:19:17.479Z,1000.11
2023-02-23T02:20:17.478Z,1000.11
2023-02-23T02:21:17.815Z,1000.11
2023-02-23T02:22:17.445Z,1000.11
2023-02-23T02:23:17.439Z,1000.12
2023-02-23T02:24:17.415Z,1000.12
2023-02-23T02:25:17.453Z,1000.12
2023-02-23T02:26:17.396Z,1000.12
2023-02-23T02:27:17.405Z,1000.11
2023-02-23T02:28:17.385Z,1000.11
2023-02-23T02:29:17.398Z,1000.12
2023-02-23T02:30:17.432Z,1000.12
2023-02-23T02:31:17.827Z,1000.12
2023-02-23T02:32:17.428Z,1000.12
2023-02-23T02:33:17.322Z,1000.12
2023-02-23T02:34:17.328Z,1000.11
2023-02-23T02:35:17.330Z,1000.11
2023-02-23T02:36:17.287Z,1000.09
2023-02-23T02:37:17.272Z,1000.09
2023-02-23T02:38:17.281Z,1000.08
2023-02-23T02:39:17.254Z,1000.08
2023-02-23T02:40:17.270Z,1000.08
2023-02-23T02:41:17.591Z,1000.07
2023-02-23T02:42:17.235Z,1000.06
2023-02-23T02:43:17.247Z,1000.05
2023-02-23T02:44:17.205Z,1000.05
2023-02-23T02:45:17.191Z,1000.05
2023-02-23T02:46:17.311Z,1000.05
2023-02-23T02:47:17.179Z,1000.04
2023-02-23T02:48:17.178Z,1000.04
2023-02-23T02:49:17.169Z,1000.04
2023-02-23T02:50:17.147Z,1000.03
2023-02-23T02:51:17.622Z,1000.04
2023-02-23T02:52:17.162Z,1000.04
2023-02-23T02:53:17.136Z,1000.04
2023-02-23T02:54:17.127Z,1000.04
2023-02-23T02:55:17.133Z,1000.03
2023-02-23T02:56:17.117Z,1000.03
2023-02-23T02:57:17.085Z,1000.02
2023-02-23T02:58:17.089Z,1000.02
2023-02-23T02:59:17.060Z,1000.02
2023-02-23T03:00:17.055Z,1000.02
2023-02-23T03:01:17.550Z,1000.02
2023-02-23T03:02:17.025Z,1000.01
2023-02-23T03:03:17.070Z,1000.01
2023-02-23T03:04:17.036Z,1000.01
2023-02-23T03:05:17.187Z,1000.01
2023-02-23T03:06:16.983Z,1000.02
2023-02-23T03:07:16.984Z,1000.02
2023-02-23T03:08:16.990Z,1000.03
2023-02-23T03:09:16.988Z,1000.03
2023-02-23T03:10:16.953Z,1000.04
2023-02-23T03:11:17.318Z,1000.04
2023-02-23T03:12:16.919Z,1000.05
2023-02-23T03:13:16.948Z,1000.05
2023-02-23T03:14:16.907Z,1000.05
2023-02-23T03:15:16.892Z,1000.05
2023-02-23T03:16:16.931Z,1000.06
2023-02-23T03:17:16.885Z,1000.06
2023-02-23T03:18:16.858Z,1000.06
2023-02-23T03:19:16.862Z,1000.07
2023-02-23T03:20:16.837Z,1000.08
2023-02-23T03:21:17.389Z,1000.08
2023-02-23T03:22:16.851Z,1000.09
2023-02-23T03:23:16.816Z,1000.09
2023-02-23T03:24:16.808Z,1000.09
2023-02-23T03:25:16.794Z,1000.09
2023-02-23T03:26:16.801Z,1000.10
2023-02-23T03:27:16.773Z,1000.09
2023-02-23T03:28:16.793Z,1000.09
2023-02-23T03:29:16.746Z,1000.09
2023-02-23T03:30:16.730Z,1000.09
2023-02-23T03:31:24.277Z,1000.09
2023-02-23T03:32:16.832Z,1000.10
2023-02-23T03:33:16.706Z,1000.10
2023-02-23T03:34:16.723Z,1000.10
2023-02-23T03:35:16.669Z,1000.10
2023-02-23T03:36:16.685Z,1000.11
2023-02-23T03:37:16.678Z,1000.11
2023-02-23T03:38:16.654Z,1000.11
2023-02-23T03:39:16.642Z,1000.11
2023-02-23T03:40:16.666Z,1000.12
2023-02-23T03:41:17.106Z,1000.12
2023-02-23T03:42:16.630Z,1000.12
2023-02-23T03:43:16.619Z,1000.13
2023-02-23T03:44:16.621Z,1000.13
2023-02-23T03:45:16.584Z,1000.13
2023-02-23T03:46:16.601Z,1000.13
2023-02-23T03:47:16.538Z,1000.13
2023-02-23T03:48:16.569Z,1000.13
2023-02-23T03:49:16.536Z,1000.12
2023-02-23T03:50:16.553Z,1000.13
2023-02-23T03:51:16.714Z,1000.13
2023-02-23T03:52:16.518Z,1000.13
2023-02-23T03:53:16.506Z,1000.13
2023-02-23T03:54:16.484Z,1000.14
2023-02-23T03:55:16.509Z,1000.13
2023-02-23T03:56:16.451Z,1000.14
2023-02-23T03:57:16.446Z,1000.13
2023-02-23T03:58:16.430Z,1000.13
2023-02-23T03:59:16.428Z,1000.12
2023-02-23T04:00:16.420Z,1000.13
2023-02-23T04:01:16.819Z,1000.12
2023-02-23T04:02:16.451Z,1000.13
2023-02-23T04:03:16.423Z,1000.13
2023-02-23T04:04:16.376Z,1000.13
2023-02-23T04:05:16.353Z,1000.13
2023-02-23T04:06:16.392Z,1000.13
2023-02-23T04:07:16.332Z,1000.13
2023-02-23T04:08:16.338Z,1000.12
2023-02-23T04:09:16.298Z,1000.12
2023-02-23T04:10:16.301Z,1000.12
2023-02-23T04:11:16.598Z,1000.13
2023-02-23T04:12:16.290Z,1000.14
2023-02-23T04:13:16.310Z,1000.15
2023-02-23T04:14:16.268Z,1000.15
2023-02-23T04:15:16.247Z,1000.15
2023-02-23T04:16:16.243Z,1000.15
2023-02-23T04:17:16.219Z,1000.15
2023-02-23T04:18:16.244Z,1000.15
2023-02-23T04:19:16.205Z,1000.16
2023-02-23T04:20:16.199Z,1000.16
2023-02-23T04:21:16.241Z,1000.16
2023-02-23T04:22:16.177Z,1000.16
2023-02-23T04:23:16.167Z,1000.16
2023-02-23T04:24:16.168Z,1000.17
2023-02-23T04:25:17.367Z,1000.17
2023-02-23T04:26:16.181Z,1000.17
2023-02-23T04:27:16.115Z,1000.18
2023-02-23T04:28:16.142Z,1000.19
2023-02-23T04:29:16.095Z,1000.20
2023-02-23T04:30:16.100Z,1000.20
2023-02-23T04:31:16.122Z,1000.20
2023-02-23T04:32:16.192Z,1000.20
2023-02-23T04:33:16.060Z,1000.21
2023-02-23T04:34:16.074Z,1000.22
2023-02-23T04:35:16.057Z,1000.22
2023-02-23T04:36:16.059Z,1000.21
2023-02-23T04:37:16.200Z,1000.22
2023-02-23T04:38:16.030Z,1000.21
2023-02-23T04:39:16.019Z,1000.22
2023-02-23T04:40:16.006Z,1000.22
2023-02-23T04:41:16.193Z,1000.22
2023-02-23T04:42:15.976Z,1000.23
2023-02-23T04:43:15.997Z,1000.24
2023-02-23T04:44:15.975Z,1000.25
2023-02-23T04:45:15.956Z,1000.25
2023-02-23T04:46:15.971Z,1000.26
2023-02-23T04:47:15.918Z,1000.26
2023-02-23T04:48:15.909Z,1000.25
2023-02-23T04:49:15.911Z,1000.26
2023-02-23T04:50:15.916Z,1000.26
2023-02-23T04:51:16.095Z,1000.26
2023-02-23T04:52:15.856Z,1000.26
2023-02-23T04:53:15.866Z,1000.26
2023-02-23T04:54:15.841Z,1000.26
2023-02-23T04:55:15.856Z,1000.26
2023-02-23T04:56:15.832Z,1000.26
2023-02-23T04:57:15.825Z,1000.26
2023-02-23T04:58:15.832Z,1000.26
2023-02-23T04:59:15.835Z,1000.26
2023-02-23T05:00:15.776Z,1000.27
2023-02-23T05:01:15.811Z,1000.28
2023-02-23T05:02:15.796Z,1000.29
2023-02-23T05:03:15.755Z,1000.30
2023-02-23T05:04:15.764Z,1000.30
2023-02-23T05:05:15.764Z,1000.31
2023-02-23T05:06:15.735Z,1000.31
2023-02-23T05:07:15.716Z,1000.32
2023-02-23T05:08:15.704Z,1000.32
2023-02-23T05:09:15.705Z,1000.32
2023-02-23T05:10:15.683Z,1000.32
2023-02-23T05:11:15.697Z,1000.32
2023-02-23T05:12:15.710Z,1000.32
2023-02-23T05:13:15.685Z,1000.32
2023-02-23T05:14:15.637Z,1000.32
2023-02-23T05:15:15.684Z,1000.33
2023-02-23T05:16:15.638Z,1000.34
2023-02-23T05:17:15.625Z,1000.35
2023-02-23T05:18:15.642Z,1000.36
2023-02-23T05:19:15.578Z,1000.36
2023-02-23T05:20:15.634Z,1000.38
2023-02-23T05:21:15.621Z,1000.38
2023-02-23T05:22:15.556Z,1000.39
2023-02-23T05:23:15.572Z,1000.39
2023-02-23T05:24:15.551Z,1000.40
2023-02-23T05:25:15.526Z,1000.41
2023-02-23T05:26:15.584Z,1000.41
2023-02-23T05:27:15.554Z,1000.41
2023-02-23T05:28:15.509Z,1000.41
2023-02-23T05:29:15.539Z,1000.41
2023-02-23T05:30:15.472Z,1000.42
2023-02-23T05:31:15.561Z,1000.43
2023-02-23T05:32:15.568Z,1000.43
2023-02-23T05:33:18.124Z,1000.43
2023-02-23T05:34:15.425Z,1000.43
2023-02-23T05:35:15.438Z,1000.44
2023-02-23T05:36:15.436Z,1000.44
2023-02-23T05:37:15.420Z,1000.44
2023-02-23T05:38:15.434Z,1000.44
2023-02-23T05:39:15.418Z,1000.45
2023-02-23T05:40:15.359Z,1000.45
2023-02-23T05:41:15.444Z,1000.45
2023-02-23T05:42:15.338Z,1000.45
2023-02-23T05:43:15.342Z,1000.45
2023-02-23T05:44:15.389Z,1000.46
2023-02-23T05:45:15.336Z,1000.46
2023-02-23T05:46:15.421Z,1000.46
2023-02-23T05:47:15.372Z,1000.46
2023-02-23T05:48:15.286Z,1000.46
2023-02-23T05:49:15.290Z,1000.46
2023-02-23T05:50:15.262Z,1000.46
2023-02-23T05:51:15.279Z,1000.46
2023-02-23T05:52:15.236Z,1000.45
2023-02-23T05:53:15.276Z,1000.45
2023-02-23T05:54:15.212Z,1000.43
2023-02-23T05:55:15.230Z,1000.42
2023-02-23T05:56:15.198Z,1000.42
2023-02-23T05:57:15.191Z,1000.41
2023-02-23T05:58:15.190Z,1000.41
2023-02-23T05:59:15.172Z,1000.42
2023-02-23T06:00:15.181Z,1000.42
2023-02-23T06:01:15.156Z,1000.43
2023-02-23T06:02:15.168Z,1000.44
2023-02-23T06:03:15.119Z,1000.44
2023-02-23T06:04:15.117Z,1000.45
2023-02-23T06:05:15.138Z,1000.46
2023-02-23T06:06:15.113Z,1000.46
2023-02-23T06:07:15.086Z,1000.46
2023-02-23T06:08:15.065Z,1000.47
2023-02-23T06:09:15.072Z,1000.47
2023-02-23T06:10:15.056Z,1000.48
2023-02-23T06:11:15.107Z,1000.48
2023-02-23T06:12:15.050Z,1000.50
2023-02-23T06:13:15.032Z,1000.51
2023-02-23T06:14:14.987Z,1000.51
2023-02-23T06:15:14.982Z,1000.53
2023-02-23T06:16:15.029Z,1000.55
2023-02-23T06:17:14.978Z,1000.55
2023-02-23T06:18:14.938Z,1000.57
2023-02-23T06:19:14.902Z,1000.59
2023-02-23T06:20:14.932Z,1000.61
2023-02-23T06:21:14.947Z,1000.62
2023-02-23T06:22:14.865Z,1000.64
2023-02-23T06:23:14.923Z,1000.66
2023-02-23T06:24:14.966Z,1000.67
2023-02-23T06:25:14.851Z,1000.69
2023-02-23T06:26:14.831Z,1000.70
2023-02-23T06:27:14.843Z,1000.72
2023-02-23T06:28:14.831Z,1000.73
2023-02-23T06:29:14.814Z,1000.75
2023-02-23T06:30:14.788Z,1000.75
2023-02-23T06:31:14.826Z,1000.77
2023-02-23T06:32:14.879Z,1000.77
2023-02-23T06:33:14.764Z,1000.79
2023-02-23T06:34:14.748Z,1000.80
2023-02-23T06:35:14.733Z,1000.82
2023-02-23T06:36:14.740Z,1000.83
2023-02-23T06:37:14.748Z,1000.84
2023-02-23T06:38:14.703Z,1000.85
2023-02-23T06:39:14.696Z,1000.85
2023-02-23T06:40:14.675Z,1000.86
2023-02-23T06:41:14.682Z,1000.86
2023-02-23T06:42:15.087Z,1000.86
2023-02-23T06:43:14.673Z,1000.87
2023-02-23T06:44:14.740Z,1000.87
2023-02-23T06:45:14.639Z,1000.88
2023-02-23T06:46:14.746Z,1000.88
2023-02-23T06:47:14.623Z,1000.88
2023-02-23T06:48:14.619Z,1000.88
2023-02-23T06:49:16.559Z,1000.90
2023-02-23T06:50:14.695Z,1000.90
2023-02-23T06:51:14.596Z,1000.91
2023-02-23T06:52:14.559Z,1000.92
2023-02-23T06:53:14.582Z,1000.92
2023-02-23T06:54:14.556Z,1000.93
2023-02-23T06:55:14.532Z,1000.93
2023-02-23T06:56:14.536Z,1000.93
2023-02-23T06:57:14.544Z,1000.94
2023-02-23T06:58:14.491Z,1000.94
2023-02-23T06:59:14.513Z,1000.95
2023-02-23T07:00:14.493Z,1000.96
2023-02-23T07:01:14.482Z,1000.97
2023-02-23T07:02:14.474Z,1000.97
2023-02-23T07:03:14.471Z,1000.99
2023-02-23T07:04:16.748Z,1001.00
2023-02-23T07:05:14.452Z,1001.01
2023-02-23T07:06:14.400Z,1001.02
2023-02-23T07:07:14.397Z,1001.03
2023-02-23T07:08:16.362Z,1001.03
2023-02-23T07:09:14.419Z,1001.04
2023-02-23T07:10:14.363Z,1001.05
2023-02-23T07:11:14.391Z,1001.06
2023-02-23T07:12:14.354Z,1001.06
2023-02-23T07:13:14.355Z,1001.07
2023-02-23T07:14:21.453Z,1001.08
2023-02-23T07:15:14.340Z,1001.09
2023-02-23T07:16:14.403Z,1001.09
2023-02-23T07:17:14.324Z,1001.11
2023-02-23T07:18:14.275Z,1001.11
2023-02-23T07:19:14.283Z,1001.12
2023-02-23T07:20:14.264Z,1001.13
2023-02-23T07:21:14.255Z,1001.15
2023-02-23T07:22:14.239Z,1001.16
2023-02-23T07:23:14.261Z,1001.18
2023-02-23T07:24:14.235Z,1001.19
2023-02-23T07:25:14.208Z,1001.21
2023-02-23T07:26:14.185Z,1001.22
2023-02-23T07:27:14.211Z,1001.22
2023-02-23T07:28:14.276Z,1001.24
2023-02-23T07:29:14.195Z,1001.25
2023-02-23T07:30:14.156Z,1001.26
2023-02-23T07:31:14.194Z,1001.27
2023-02-23T07:32:14.247Z,1001.27
2023-02-23T07:33:14.148Z,1001.28
2023-02-23T07:34:14.141Z,1001.29
2023-02-23T07:35:14.203Z,1001.29
2023-02-23T07:36:14.192Z,1001.30
2023-02-23T07:37:14.087Z,1001.30
2023-02-23T07:38:14.087Z,1001.31
2023-02-23T07:39:14.072Z,1001.31
2023-02-23T07:40:14.089Z,1001.31
2023-02-23T07:41:14.051Z,1001.31
2023-02-23T07:43:32.969Z,1001.32
2023-02-23T07:44:33.974Z,1001.33
2023-02-23T07:45:34.004Z,1001.33
2023-02-23T07:46:33.987Z,1001.34
2023-02-23T07:47:33.928Z,1001.34
2023-02-23T07:48:33.914Z,1001.35
2023-02-23T07:49:33.905Z,1001.35
2023-02-23T07:50:33.905Z,1001.37
2023-02-23T07:51:33.891Z,1001.37
2023-02-23T07:52:33.907Z,1001.38
2023-02-23T07:53:33.856Z,1001.38
2023-02-23T07:54:33.882Z,1001.39
2023-02-23T07:55:33.849Z,1001.39
2023-02-23T07:56:33.859Z,1001.39
2023-02-23T07:57:33.866Z,1001.39
2023-02-23T07:58:33.824Z,1001.40
2023-02-23T07:59:33.810Z,1001.40
2023-02-23T08:00:33.873Z,1001.41
2023-02-23T08:01:33.816Z,1001.41
2023-02-23T08:02:33.798Z,1001.42
2023-02-23T08:03:33.758Z,1001.42
2023-02-23T08:04:33.814Z,1001.43
2023-02-23T08:05:33.763Z,1001.44
2023-02-23T08:06:33.741Z,1001.45
2023-02-23T08:07:33.713Z,1001.46
2023-02-23T08:08:33.734Z,1001.48
2023-02-23T08:09:33.685Z,1001.49
2023-02-23T08:10:33.727Z,1001.51
2023-02-23T08:11:33.681Z,1001.53
2023-02-23T08:12:33.700Z,1001.54
2023-02-23T08:13:33.654Z,1001.56
2023-02-23T08:14:33.652Z,1001.57
2023-02-23T08:15:33.664Z,1001.58
2023-02-23T08:16:33.739Z,1001.59
2023-02-23T08:17:33.621Z,1001.61
2023-02-23T08:18:33.674Z,1001.62
2023-02-23T08:19:33.593Z,1001.64
2023-02-23T08:20:33.588Z,1001.64
2023-02-23T08:21:33.575Z,1001.66
2023-02-23T08:22:47.122Z,1001.67
2023-02-23T08:23:33.547Z,1001.68
2023-02-23T08:24:33.543Z,1001.68
2023-02-23T08:25:33.536Z,1001.69
2023-02-23T08:26:33.557Z,1001.70
2023-02-23T08:27:33.506Z,1001.70
2023-02-23T08:28:33.531Z,1001.71
2023-02-23T08:29:33.473Z,1001.72
2023-02-23T08:30:33.575Z,1001.73
2023-02-23T08:31:33.555Z,1001.74
2023-02-23T08:32:33.522Z,1001.75
2023-02-23T08:33:33.433Z,1001.76
2023-02-23T08:34:33.474Z,1001.77
2023-02-23T08:35:33.415Z,1001.78
2023-02-23T08:36:33.432Z,1001.78
2023-02-23T08:37:33.400Z,1001.78
2023-02-23T08:38:33.419Z,1001.79
2023-02-23T08:39:33.402Z,1001.79
2023-02-23T08:40:33.388Z,1001.80
2023-02-23T08:41:33.377Z,1001.80
2023-02-23T08:42:33.353Z,1001.81
2023-02-23T08:43:33.341Z,1001.80
2023-02-23T08:44:33.388Z,1001.80
2023-02-23T08:45:33.344Z,1001.81
2023-02-23T08:46:33.374Z,1001.81
2023-02-23T08:47:33.290Z,1001.82
2023-02-23T08:48:33.303Z,1001.82
2023-02-23T08:49:33.264Z,1001.84
2023-02-23T08:50:33.275Z,1001.83
2023-02-23T08:51:33.251Z,1001.84
2023-02-23T08:52:33.272Z,1001.83
2023-02-23T08:53:33.264Z,1001.83
2023-02-23T08:54:33.250Z,1001.82
2023-02-23T08:55:33.235Z,1001.83
2023-02-23T08:56:33.202Z,1001.83
2023-02-23T08:57:33.206Z,1001.83
2023-02-23T08:58:33.205Z,1001.83
2023-02-23T08:59:33.150Z,1001.83
2023-02-23T09:00:33.166Z,1001.83
2023-02-23T09:01:33.260Z,1001.82
2023-02-23T09:02:33.160Z,1001.81
2023-02-23T09:03:34.557Z,1001.82
2023-02-23T09:04:33.110Z,1001.81
2023-02-23T09:05:33.198Z,1001.82
2023-02-23T09:06:33.096Z,1001.82
2023-02-23T09:07:33.097Z,1001.82
2023-02-23T09:08:33.064Z,1001.83
2023-02-23T09:09:33.050Z,1001.84
2023-02-23T09:10:33.052Z,1001.84
2023-02-23T09:11:33.067Z,1001.85
2023-02-23T09:12:33.018Z,1001.86
2023-02-23T09:13:33.081Z,1001.86
2023-02-23T09:14:33.005Z,1001.87
2023-02-23T09:15:33.000Z,1001.88
2023-02-23T09:16:33.060Z,1001.88
2023-02-23T09:17:32.960Z,1001.89
2023-02-23T09:18:32.996Z,1001.90
2023-02-23T09:19:33.012Z,1001.91
2023-02-23T09:20:32.967Z,1001.92
2023-02-23T09:21:32.949Z,1001.93
2023-02-23T09:22:32.924Z,1001.93
2023-02-23T09:23:32.900Z,1001.95
2023-02-23T09:24:32.905Z,1001.96
2023-02-23T09:25:32.890Z,1001.96
2023-02-23T09:26:32.885Z,1001.97
2023-02-23T09:27:32.871Z,1001.98
2023-02-23T09:28:32.860Z,1002.00
2023-02-23T09:29:32.882Z,1002.00
2023-02-23T09:30:32.883Z,1002.02
2023-02-23T09:31:32.865Z,1002.03
2023-02-23T09:32:32.912Z,1002.05
2023-02-23T09:33:32.795Z,1002.04
2023-02-23T09:34:32.797Z,1002.06
2023-02-23T09:35:32.778Z,1002.08
2023-02-23T09:36:32.786Z,1002.08
2023-02-23T09:37:32.775Z,1002.09
2023-02-23T09:38:32.785Z,1002.10
2023-02-23T09:39:38.420Z,1002.10
2023-02-23T09:41:44.550Z,1002.11
2023-02-23T09:42:45.633Z,1002.12
2023-02-23T09:43:45.518Z,1002.13
2023-02-23T09:44:45.521Z,1002.14
2023-02-23T09:45:45.566Z,1002.14
2023-02-23T09:46:45.497Z,1002.15
2023-02-23T09:47:45.483Z,1002.15
2023-02-23T09:48:45.502Z,1002.16
2023-02-23T09:49:45.456Z,1002.16
2023-02-23T09:50:45.461Z,1002.17
2023-02-23T09:51:45.447Z,1002.17
2023-02-23T09:52:45.464Z,1002.18
2023-02-23T09:53:45.864Z,1002.19
2023-02-23T09:54:45.430Z,1002.20
2023-02-23T09:55:45.428Z,1002.20
2023-02-23T09:56:45.402Z,1002.21
2023-02-23T09:57:45.374Z,1002.23
2023-02-23T09:58:45.373Z,1002.23
2023-02-23T09:59:45.353Z,1002.25
2023-02-23T10:00:45.342Z,1002.26
2023-02-23T10:01:45.409Z,1002.25
2023-02-23T10:02:45.374Z,1002.26
2023-02-23T10:03:45.310Z,1002.26
2023-02-23T10:04:45.321Z,1002.27
2023-02-23T10:05:45.286Z,1002.29
2023-02-23T10:06:45.317Z,1002.30
2023-02-23T10:07:45.285Z,1002.30
2023-02-23T10:08:45.280Z,1002.30
2023-02-23T10:09:45.239Z,1002.30
2023-02-23T10:10:45.222Z,1002.31
2023-02-23T10:11:45.224Z,1002.32
2023-02-23T10:12:45.221Z,1002.32
2023-02-23T10:13:45.221Z,1002.34
2023-02-23T10:14:45.193Z,1002.34
2023-02-23T10:15:45.189Z,1002.35
2023-02-23T10:16:45.190Z,1002.35
2023-02-23T10:17:45.178Z,1002.37
2023-02-23T10:18:47.386Z,1002.37
2023-02-23T10:19:45.137Z,1002.37
2023-02-23T10:20:45.133Z,1002.37
2023-02-23T10:21:45.128Z,1002.38
2023-02-23T10:22:45.103Z,1002.38
2023-02-23T10:23:45.097Z,1002.38
2023-02-23T10:24:45.083Z,1002.37
2023-02-23T10:25:45.089Z,1002.39
2023-02-23T10:26:45.065Z,1002.39
2023-02-23T10:27:45.071Z,1002.40
2023-02-23T10:28:46.810Z,1002.39
2023-02-23T10:29:45.030Z,1002.38
2023-02-23T10:30:45.026Z,1002.38
2023-02-23T10:31:45.187Z,1002.38
2023-02-23T10:32:45.021Z,1002.37
2023-02-23T10:33:44.996Z,1002.37
2023-02-23T10:34:45.003Z,1002.38
2023-02-23T10:35:44.992Z,1002.39
2023-02-23T10:36:44.949Z,1002.38
2023-02-23T10:37:44.950Z,1002.42
2023-02-23T10:38:44.937Z,1002.41
2023-02-23T10:39:45.437Z,1002.43
2023-02-23T10:40:44.917Z,1002.44
2023-02-23T10:41:44.901Z,1002.44
2023-02-23T10:42:44.905Z,1002.45
2023-02-23T10:43:44.895Z,1002.44
2023-02-23T10:44:44.867Z,1002.43
2023-02-23T10:45:44.864Z,1002.43
2023-02-23T10:46:44.915Z,1002.42
2023-02-23T10:47:44.834Z,1002.41
2023-02-23T10:48:44.863Z,1002.40
2023-02-23T10:49:44.829Z,1002.40
2023-02-23T10:50:44.792Z,1002.39
2023-02-23T10:51:44.812Z,1002.39
2023-02-23T10:52:44.803Z,1002.39
2023-02-23T10:53:44.780Z,1002.39
2023-02-23T10:54:44.824Z,1002.41
2023-02-23T10:55:44.758Z,1002.42
2023-02-23T10:56:44.783Z,1002.43
2023-02-23T10:57:44.742Z,1002.45
2023-02-23T10:58:44.716Z,1002.47
2023-02-23T10:59:44.721Z,1002.48
2023-02-23T11:00:44.757Z,1002.49
2023-02-23T11:02:00.436Z,1002.51
2023-02-23T11:02:44.747Z,1002.52
2023-02-23T11:03:45.745Z,1002.54
2023-02-23T11:04:44.734Z,1002.54
2023-02-23T11:05:44.638Z,1002.54
2023-02-23T11:06:44.632Z,1002.54
2023-02-23T11:07:44.628Z,1002.53
2023-02-23T11:08:44.595Z,1002.50
2023-02-23T11:09:47.740Z,1002.50
2023-02-23T11:10:44.574Z,1002.50
2023-02-23T11:11:44.583Z,1002.51
2023-02-23T11:12:44.580Z,1002.50
2023-02-23T11:13:44.566Z,1002.50
2023-02-23T11:14:44.536Z,1002.49
2023-02-23T11:15:50.821Z,1002.49
2023-02-23T11:16:44.642Z,1002.49
2023-02-23T11:17:44.522Z,1002.49
2023-02-23T11:18:44.498Z,1002.49
2023-02-23T11:19:46.398Z,1002.49
2023-02-23T11:20:44.472Z,1002.48
2023-02-23T11:21:44.473Z,1002.47
2023-02-23T11:22:44.525Z,1002.46
2023-02-23T11:23:44.726Z,1002.45
2023-02-23T11:24:44.657Z,1002.45
2023-02-23T11:25:45.201Z,1002.45
2023-02-23T11:26:44.515Z,1002.46
2023-02-23T11:27:44.557Z,1002.45
2023-02-23T11:28:44.424Z,1002.46
2023-02-23T11:29:44.415Z,1002.45
2023-02-23T11:30:44.392Z,1002.45
2023-02-23T11:31:44.489Z,1002.45
2023-02-23T11:32:44.425Z,1002.45
2023-02-23T11:33:44.387Z,1002.44
2023-02-23T11:34:44.327Z,1002.47
2023-02-23T11:35:44.321Z,1002.45
2023-02-23T11:36:44.314Z,1002.45
2023-02-23T11:37:44.314Z,1002.46
2023-02-23T11:38:44.309Z,1002.45
2023-02-23T11:39:44.273Z,1002.48
2023-02-23T11:40:44.258Z,1002.47
2023-02-23T11:41:44.276Z,1002.47
2023-02-23T11:42:44.255Z,1002.49
2023-02-23T11:43:44.252Z,1002.48
2023-02-23T11:44:44.257Z,1002.49
2023-02-23T11:45:44.264Z,1002.47
2023-02-23T11:46:44.345Z,1002.46
2023-02-23T11:47:44.213Z,1002.43
2023-02-23T11:48:44.207Z,1002.43
2023-02-23T11:49:44.185Z,1002.41
2023-02-23T11:50:44.221Z,1002.40
2023-02-23T11:51:44.166Z,1002.39
2023-02-23T11:52:44.174Z,1002.38
2023-02-23T11:53:44.221Z,1002.36
2023-02-23T11:54:44.136Z,1002.35
2023-02-23T11:55:44.115Z,1002.34
2023-02-23T11:56:44.143Z,1002.37
2023-02-23T11:57:44.106Z,1002.35
2023-02-23T11:58:44.112Z,1002.33
2023-02-23T11:59:44.104Z,1002.33
2023-02-23T12:00:44.065Z,1002.35
2023-02-23T12:01:44.091Z,1002.35
2023-02-23T12:02:44.069Z,1002.36
2023-02-23T12:03:44.042Z,1002.36
2023-02-23T12:04:44.117Z,1002.36
2023-02-23T12:05:44.010Z,1002.35
2023-02-23T12:06:44.076Z,1002.35
2023-02-23T12:07:44.032Z,1002.34